Time;durP1;ratioP1;P1;durP2;ratioP2;P2;SDS_P1;SDS_P2;PMS_P1;PMS_P2;Temp;Humidity;BMP_temperature;BMP_pressure;BME280_temperature;BME280_humidity;BME280_pressure;Samples;Min_cycle;Max_cycle;Signal;HPM_P1;HPM_P2
2024/01/25 09:12:17;;;;;;;;;;;;;;;4.45;100.00;101059.38;4896714;29;19934;-79
2024/01/25 09:14:42;;;;;;;;;;;;;;;4.48;100.00;101055.84;4900386;29;19937;-77
2024/01/25 09:17:08;;;;;;;;;;;;;;;4.50;100.00;101055.00;4900568;29;19929;-79
2024/01/25 09:19:33;;;;;;;;;;;;;;;4.50;100.00;101055.00;4900071;29;19919;-80
2024/01/25 09:22:03;;;;;;;;;;;;;;;4.49;100.00;101055.88;4900222;29;19923;-80
2024/01/25 09:24:29;;;;;;;;;;;;;;;4.61;100.00;101062.00;4898901;29;20454;-79
2024/01/25 09:26:55;;;;;;;;;;;;;;;4.68;100.00;101056.78;4900004;29;20006;-79
2024/01/25 09:29:20;;;;;;;;;;;;;;;4.65;100.00;101055.91;4900164;29;19919;-87
2024/01/25 09:31:45;;;;;;;;;;;;;;;4.60;100.00;101063.78;4900240;29;19944;-78
2024/01/25 09:34:11;;;;;;;;;;;;;;;4.62;100.00;101067.25;4899984;29;19920;-78
2024/01/25 09:36:36;;;;;;;;;;;;;;;4.64;100.00;101056.78;4899715;29;19915;-79
2024/01/25 09:39:01;;;;;;;;;;;;;;;4.65;100.00;101062.03;4881871;29;20473;-77
2024/01/25 09:41:26;;;;;;;;;;;;;;;4.65;100.00;101058.53;4899559;29;20495;-78
2024/01/25 09:43:52;;;;;;;;;;;;;;;4.67;100.00;101054.16;4899877;29;20458;-79
2024/01/25 09:46:17;;;;;;;;;;;;;;;4.68;100.00;101053.28;4899800;29;19931;-79
2024/01/25 09:48:45;;;;;;;;;;;;;;;4.71;100.00;101063.78;4890342;29;20335;-79
2024/01/25 09:51:11;;;;;;;;;;;;;;;4.73;100.00;101069.91;4899102;29;20276;-85
2024/01/25 09:53:37;;;;;;;;;;;;;;;4.77;100.00;101071.69;4899618;29;20046;-79
2024/01/25 09:56:09;;;;;;;;;;;;;;;4.84;100.00;101069.94;4898330;29;19923;-78
2024/01/25 09:58:39;;;;;;;;;;;;;;;4.73;100.00;101072.53;4899410;29;19919;-78
2024/01/25 10:01:07;;;;;;;;;;;;;;;4.72;100.00;101078.66;4899541;29;19916;-77
2024/01/25 10:03:34;;;;;;;;;;;;;;;4.72;100.00;101069.06;4898838;29;19923;-78
2024/01/25 10:06:00;;;;;;;;;;;;;;;4.73;100.00;101076.03;4898853;29;19920;-78
2024/01/25 10:08:25;;;;;;;;;;;;;;;4.68;100.00;101074.28;4882278;29;20058;-86
2024/01/25 10:10:53;;;;;;;;;;;;;;;4.78;100.00;101067.31;4897921;29;19931;-80
2024/01/25 10:13:19;;;;;;;;;;;;;;;4.71;100.00;101077.78;4899359;29;19930;-81
2024/01/25 10:15:46;;;;;;;;;;;;;;;4.73;100.00;101077.78;4882346;29;19923;-79
2024/01/25 10:18:13;;;;;;;;;;;;;;;4.75;100.00;101083.91;4898299;29;19920;-79
2024/01/25 10:20:47;;;;;;;;;;;;;;;4.74;100.00;101087.44;4899118;29;19979;-78
2024/01/25 10:23:12;;;;;;;;;;;;;;;4.78;100.00;101088.31;4897930;29;19927;-80
2024/01/25 10:25:37;;;;;;;;;;;;;;;4.76;100.00;101087.44;4897544;29;19920;-79
2024/01/25 10:28:04;;;;;;;;;;;;;;;4.80;100.00;101087.41;4899081;29;19939;-80
2024/01/25 10:30:31;;;;;;;;;;;;;;;4.78;100.00;101088.31;4898734;29;20377;-84
2024/01/25 10:32:58;;;;;;;;;;;;;;;4.80;100.00;101087.41;4899089;29;19925;-80
2024/01/25 10:35:24;;;;;;;;;;;;;;;4.83;100.00;101087.44;4898206;29;20341;-76
2024/01/25 10:37:50;;;;;;;;;;;;;;;4.78;100.00;101089.19;4898953;29;20328;-77
2024/01/25 10:40:16;;;;;;;;;;;;;;;4.83;100.00;101081.31;4897589;29;19929;-78
2024/01/25 10:42:42;;;;;;;;;;;;;;;4.84;100.00;101089.19;4898637;29;20188;-86
2024/01/25 10:45:07;;;;;;;;;;;;;;;4.80;100.00;101076.91;4881738;29;20072;-76
2024/01/25 10:47:35;;;;;;;;;;;;;;;4.83;100.00;101076.06;4898680;29;19927;-76
2024/01/25 10:50:00;;;;;;;;;;;;;;;4.84;100.00;101076.06;4898461;29;19967;-76
2024/01/25 10:52:26;;;;;;;;;;;;;;;4.79;100.00;101077.81;4898623;29;20033;-77
2024/01/25 10:54:52;;;;;;;;;;;;;;;4.83;100.00;101069.03;4897003;29;19959;-80
2024/01/25 10:57:17;;;;;;;;;;;;;;;4.83;100.00;101069.03;4898544;29;19934;-77
2024/01/25 10:59:42;;;;;;;;;;;;;;;4.91;100.00;101067.31;4881580;29;19974;-80
2024/01/25 11:02:08;;;;;;;;;;;;;;;4.87;100.00;101068.19;4898515;29;19919;-79
2024/01/25 11:04:34;;;;;;;;;;;;;;;4.88;100.00;101059.44;4898313;29;19927;-78
2024/01/25 11:07:11;;;;;;;;;;;;;;;4.89;100.00;101045.41;4898280;29;19924;-79
2024/01/25 11:09:37;;;;;;;;;;;;;;;4.87;100.00;101041.06;4896269;29;19924;-78
2024/01/25 11:12:11;;;;;;;;;;;;;;;4.86;100.00;101052.44;4898142;29;19952;-81
2024/01/25 11:14:36;;;;;;;;;;;;;;;4.88;100.00;101048.03;4887889;29;19920;-80
2024/01/25 11:17:14;;;;;;;;;;;;;;;4.94;100.00;101048.03;4881477;29;20414;-79
2024/01/25 11:19:39;;;;;;;;;;;;;;;4.89;100.00;101041.91;4897735;29;19926;-80
2024/01/25 11:22:04;;;;;;;;;;;;;;;4.86;100.00;101037.53;4881267;29;19923;-80
2024/01/25 11:24:46;;;;;;;;;;;;;;;;;;;;;
2024/01/25 11:27:13;;;;;;;;;;;;;;;4.95;100.00;101033.19;4897931;29;19926;-77
2024/01/25 11:29:39;;;;;;;;;;;;;;;4.88;100.00;101027.03;4897929;29;20374;-79
2024/01/25 11:32:05;;;;;;;;;;;;;;;4.91;100.00;101022.69;4897729;29;19919;-79
2024/01/25 11:34:31;;;;;;;;;;;;;;;4.94;100.00;101016.53;4896788;29;19946;-78
2024/01/25 11:36:57;;;;;;;;;;;;;;;4.92;100.00;101018.28;4897743;29;19920;-80
2024/01/25 11:39:22;;;;;;;;;;;;;;;4.95;100.00;101017.41;4896451;29;19924;-79
2024/01/25 11:41:50;;;;;;;;;;;;;;;4.95;100.00;101017.41;4897639;29;19920;-77
2024/01/25 11:44:16;;;;;;;;;;;;;;;4.94;100.00;101015.66;4897509;29;19919;-77
2024/01/25 11:46:41;;;;;;;;;;;;;;;4.91;100.00;101012.16;4897387;29;20335;-78
2024/01/25 11:49:07;;;;;;;;;;;;;;;4.98;100.00;101020.91;4897570;29;20135;-75
2024/01/25 11:51:32;;;;;;;;;;;;;;;4.97;100.00;101008.66;4897716;29;19923;-79
2024/01/25 11:53:58;;;;;;;;;;;;;;;4.99;100.00;101008.66;4897611;29;19923;-81
2024/01/25 11:56:25;;;;;;;;;;;;;;;4.97;100.00;101013.91;4896144;29;19954;-78
2024/01/25 11:58:51;;;;;;;;;;;;;;;4.99;100.00;101011.28;4896594;29;20022;-78
2024/01/25 12:01:17;;;;;;;;;;;;;;;5.02;100.00;101013.91;4897348;29;20327;-78
2024/01/25 12:03:43;;;;;;;;;;;;;;;5.01;100.00;101009.50;4897200;29;20387;-78
2024/01/25 12:06:09;;;;;;;;;;;;;;;5.00;100.00;101002.53;4897521;29;19965;-78
2024/01/25 12:08:35;;;;;;;;;;;;;;;5.00;100.00;100992.88;4896997;29;19923;-77
2024/01/25 12:11:04;;;;;;;;;;;;;;;5.01;100.00;100985.88;4878148;29;19931;-80
2024/01/25 12:13:31;;;;;;;;;;;;;;;4.99;100.00;100991.13;4896062;29;19919;-78
2024/01/25 12:15:57;;;;;;;;;;;;;;;5.02;100.00;100982.38;4897020;29;19927;-78
2024/01/25 12:18:22;;;;;;;;;;;;;;;4.99;100.00;100972.75;4880501;29;20291;-77
2024/01/25 12:20:47;;;;;;;;;;;;;;;5.01;100.00;100967.47;4896943;29;20338;-78
2024/01/25 12:23:13;;;;;;;;;;;;;;;5.00;100.00;100960.50;4897027;29;20438;-76
2024/01/25 12:25:42;;;;;;;;;;;;;;;5.05;100.00;100966.63;4895341;29;19920;-76
2024/01/25 12:28:09;;;;;;;;;;;;;;;5.02;100.00;100961.38;4896842;29;19931;-78
2024/01/25 12:30:34;;;;;;;;;;;;;;;5.06;100.00;100953.47;4897074;29;19932;-79
2024/01/25 12:32:59;;;;;;;;;;;;;;;5.05;100.00;100951.72;4897007;29;20363;-79
2024/01/25 12:35:24;;;;;;;;;;;;;;;5.05;100.00;100948.22;4880078;29;19919;-81
2024/01/25 12:37:50;;;;;;;;;;;;;;;5.07;100.00;100942.09;4896908;29;19920;-80
2024/01/25 12:40:15;;;;;;;;;;;;;;;5.05;100.00;100941.22;4895711;29;19926;-83
2024/01/25 12:42:40;;;;;;;;;;;;;;;5.02;100.00;100940.34;4896706;29;19920;-79
2024/01/25 12:45:06;;;;;;;;;;;;;;;5.08;100.00;100935.94;4881284;29;19919;-87
2024/01/25 12:47:31;;;;;;;;;;;;;;;5.09;100.00;100931.59;4900862;29;20375;-80
2024/01/25 12:49:56;;;;;;;;;;;;;;;5.11;100.00;100924.56;4902021;29;19923;-79
2024/01/25 12:52:21;;;;;;;;;;;;;;;5.09;100.00;100916.69;4900854;29;20364;-79
2024/01/25 12:54:47;;;;;;;;;;;;;;;5.11;100.00;100914.06;4899355;29;20026;-80
2024/01/25 12:57:12;;;;;;;;;;;;;;;5.09;100.00;100913.19;4900592;29;19915;-81
2024/01/25 12:59:37;;;;;;;;;;;;;;;5.05;100.00;100916.69;4900561;29;19928;-79
2024/01/25 13:02:04;;;;;;;;;;;;;;;5.09;100.00;100911.44;4899577;29;20438;-78
2024/01/25 13:04:29;;;;;;;;;;;;;;;5.07;100.00;100913.19;4900370;29;19923;-85
2024/01/25 13:06:55;;;;;;;;;;;;;;;5.11;100.00;100913.19;4900506;29;20536;-80
2024/01/25 13:09:21;;;;;;;;;;;;;;;5.15;100.00;100913.16;4899306;29;20279;-79
2024/01/25 13:11:46;;;;;;;;;;;;;;;5.10;100.00;100917.56;4900211;29;20371;-78
2024/01/25 13:14:11;;;;;;;;;;;;;;;5.07;100.00;100912.31;4900198;29;19998;-79
2024/01/25 13:16:36;;;;;;;;;;;;;;;5.11;100.00;100907.94;4900265;29;19932;-79
2024/01/25 13:19:02;;;;;;;;;;;;;;;5.14;100.00;100911.44;4900310;29;19926;-80
2024/01/25 13:21:27;;;;;;;;;;;;;;;5.13;100.00;100903.53;4900142;29;20021;-79
2024/01/25 13:23:52;;;;;;;;;;;;;;;5.16;100.00;100904.41;4899575;29;19919;-80
2024/01/25 13:26:18;;;;;;;;;;;;;;;5.17;100.00;100900.00;4881970;29;20382;-85
2024/01/25 13:28:43;;;;;;;;;;;;;;;5.17;100.00;100897.38;4899854;29;20006;-79
2024/01/25 13:31:08;;;;;;;;;;;;;;;5.12;100.00;100894.78;4883302;29;19920;-80
2024/01/25 13:33:33;;;;;;;;;;;;;;;5.12;100.00;100894.78;4899896;29;20264;-78
2024/01/25 13:35:59;;;;;;;;;;;;;;;5.17;100.00;100895.66;4899830;29;20295;-80
2024/01/25 13:38:24;;;;;;;;;;;;;;;5.14;100.00;100895.66;4900009;29;19998;-77
2024/01/25 13:40:50;;;;;;;;;;;;;;;5.10;100.00;100888.66;4898539;29;19915;-78
2024/01/25 13:43:16;;;;;;;;;;;;;;;5.12;100.00;100889.50;4900014;29;20344;-79
2024/01/25 13:45:41;;;;;;;;;;;;;;;5.15;100.00;100884.25;4899883;29;19966;-80
2024/01/25 13:48:06;;;;;;;;;;;;;;;5.16;100.00;100883.38;4899673;29;19935;-80
2024/01/25 13:50:31;;;;;;;;;;;;;;;5.17;100.00;100879.88;4899720;29;19955;-86
2024/01/25 13:52:57;;;;;;;;;;;;;;;5.19;100.00;100878.13;4875211;29;19931;-81
2024/01/25 13:55:22;;;;;;;;;;;;;;;5.12;100.00;100873.75;4898382;29;20014;-87
2024/01/25 13:57:47;;;;;;;;;;;;;;;5.18;100.00;100872.88;4898371;29;20003;-78
2024/01/25 14:00:13;;;;;;;;;;;;;;;5.14;100.00;100865.88;4899572;29;20152;-80
2024/01/25 14:02:40;;;;;;;;;;;;;;;5.18;100.00;100860.59;4899564;29;19920;-81
2024/01/25 14:05:06;;;;;;;;;;;;;;;5.20;100.00;100861.50;4899318;29;19919;-81
2024/01/25 14:07:31;;;;;;;;;;;;;;;5.21;100.00;100862.34;4899451;29;20332;-83
2024/01/25 14:09:56;;;;;;;;;;;;;;;5.16;100.00;100865.00;4881299;29;19928;-80
2024/01/25 14:12:22;;;;;;;;;;;;;;;5.21;100.00;100865.84;4899180;29;20328;-82
2024/01/25 14:14:47;;;;;;;;;;;;;;;5.23;100.00;100864.09;4899189;29;20425;-83
2024/01/25 14:17:12;;;;;;;;;;;;;;;5.18;100.00;100857.97;4889950;29;19920;-79
2024/01/25 14:19:37;;;;;;;;;;;;;;;5.22;100.00;100856.22;4882335;29;19931;-81
2024/01/25 14:22:03;;;;;;;;;;;;;;;5.24;100.00;100857.09;4882315;29;19960;-82
2024/01/25 14:24:28;;;;;;;;;;;;;;;5.23;100.00;100852.69;4880957;29;19924;-78
2024/01/25 14:26:53;;;;;;;;;;;;;;;5.18;100.00;100846.59;4898996;29;19955;-79
2024/01/25 14:29:18;;;;;;;;;;;;;;;5.19;100.00;100843.97;4899150;29;19920;-80
2024/01/25 14:31:44;;;;;;;;;;;;;;;5.22;100.00;100829.94;4882178;29;20014;-80
2024/01/25 14:34:09;;;;;;;;;;;;;;;5.22;100.00;100828.19;4898959;29;20051;-77
2024/01/25 14:36:35;;;;;;;;;;;;;;;5.24;100.00;100826.41;4898976;29;19931;-79
2024/01/25 14:39:00;;;;;;;;;;;;;;;5.27;100.00;100818.53;4898921;29;20426;-80
2024/01/25 14:41:25;;;;;;;;;;;;;;;5.21;100.00;100818.53;4897508;29;19923;-81
2024/01/25 14:43:51;;;;;;;;;;;;;;;5.25;100.00;100814.16;4898776;29;19920;-79
2024/01/25 14:46:16;;;;;;;;;;;;;;;5.24;100.00;100817.66;4898779;29;19919;-79
2024/01/25 14:48:41;;;;;;;;;;;;;;;5.33;100.00;100824.63;4898830;29;20388;-80
2024/01/25 14:51:07;;;;;;;;;;;;;;;5.27;100.00;100815.91;4898647;29;20474;-79
2024/01/25 14:53:32;;;;;;;;;;;;;;;5.31;100.00;100821.13;4898729;29;19919;-79
2024/01/25 14:55:57;;;;;;;;;;;;;;;5.26;100.00;100822.06;4897383;29;20390;-82
2024/01/25 14:58:22;;;;;;;;;;;;;;;5.22;100.00;100815.03;4898472;29;19919;-81
2024/01/25 15:00:48;;;;;;;;;;;;;;;5.31;100.00;100818.50;4888903;29;19919;-81
2024/01/25 15:03:14;;;;;;;;;;;;;;;5.27;100.00;100813.25;4898423;29;20406;-83
2024/01/25 15:05:39;;;;;;;;;;;;;;;5.26;100.00;100822.06;4898284;29;19989;-79
2024/01/25 15:08:04;;;;;;;;;;;;;;;5.26;100.00;100819.41;4898051;29;20027;-80
2024/01/25 15:10:31;;;;;;;;;;;;;;;5.32;100.00;100813.25;4896853;29;19928;-80
2024/01/25 15:12:58;;;;;;;;;;;;;;;5.27;100.00;100807.16;4898072;29;19967;-81
2024/01/25 15:15:24;;;;;;;;;;;;;;;5.28;100.00;100801.88;4897650;29;19923;-79
2024/01/25 15:17:49;;;;;;;;;;;;;;;5.27;100.00;100805.38;4898153;29;19981;-82
2024/01/25 15:20:15;;;;;;;;;;;;;;;5.27;100.00;100801.88;4898218;29;19924;-81
2024/01/25 15:22:40;;;;;;;;;;;;;;;5.28;100.00;100801.88;4898043;29;19923;-80
2024/01/25 15:25:05;;;;;;;;;;;;;;;5.26;100.00;100798.41;4896909;29;19966;-90
2024/01/25 15:27:30;;;;;;;;;;;;;;;5.28;100.00;100798.38;4897941;29;20077;-81
2024/01/25 15:29:56;;;;;;;;;;;;;;;5.27;100.00;100800.13;4897955;29;19915;-79
2024/01/25 15:32:21;;;;;;;;;;;;;;;5.31;100.00;100794.84;4881039;29;19926;-79
2024/01/25 15:34:47;;;;;;;;;;;;;;;5.30;100.00;100803.59;4897931;29;19919;-80
2024/01/25 15:37:12;;;;;;;;;;;;;;;5.27;100.00;100800.13;4897507;29;19923;-80
2024/01/25 15:39:38;;;;;;;;;;;;;;;5.31;100.00;100800.09;4896650;29;19923;-79
2024/01/25 15:42:03;;;;;;;;;;;;;;;5.27;100.00;100792.25;4897959;29;20283;-80
2024/01/25 15:44:28;;;;;;;;;;;;;;;5.32;100.00;100796.63;4896317;29;20334;-79
2024/01/25 15:46:54;;;;;;;;;;;;;;;5.31;100.00;100789.59;4880684;29;20339;-80
2024/01/25 15:49:22;;;;;;;;;;;;;;;5.30;100.00;100790.47;4897708;29;19923;-80
2024/01/25 15:51:48;;;;;;;;;;;;;;;5.26;100.00;100787.88;4897079;29;19950;-80
2024/01/25 15:54:13;;;;;;;;;;;;;;;5.26;100.00;100779.09;4896149;29;20006;-81
2024/01/25 15:56:39;;;;;;;;;;;;;;;5.28;100.00;100780.84;4897461;29;20307;-82
2024/01/25 15:59:05;;;;;;;;;;;;;;;5.33;100.00;100772.06;4897310;29;19919;-80
2024/01/25 16:01:30;;;;;;;;;;;;;;;5.31;100.00;100779.94;4896285;29;19923;-81
2024/01/25 16:03:55;;;;;;;;;;;;;;;5.30;100.00;100777.31;4897217;29;19923;-81
2024/01/25 16:06:20;;;;;;;;;;;;;;;5.32;100.00;100780.84;4897245;29;19942;-80
2024/01/25 16:08:46;;;;;;;;;;;;;;;5.34;100.00;100779.06;4897332;29;20022;-80
2024/01/25 16:11:11;;;;;;;;;;;;;;;5.30;100.00;100777.31;4895753;29;19923;-81
2024/01/25 16:13:36;;;;;;;;;;;;;;;5.27;100.00;100784.34;4897093;29;19919;-82
2024/01/25 16:16:02;;;;;;;;;;;;;;;5.29;100.00;100789.59;4897056;29;19929;-86
2024/01/25 16:18:28;;;;;;;;;;;;;;;5.32;100.00;100783.47;4896498;29;19925;-84
2024/01/25 16:20:54;;;;;;;;;;;;;;;5.31;100.00;100784.34;4896538;29;19919;-82
2024/01/25 16:23:19;;;;;;;;;;;;;;;5.28;100.00;100785.22;4896939;29;19934;-81
2024/01/25 16:25:44;;;;;;;;;;;;;;;5.36;100.00;100778.19;4895715;29;20002;-80
2024/01/25 16:28:09;;;;;;;;;;;;;;;5.31;100.00;100786.97;4896850;29;19951;-80
2024/01/25 16:30:35;;;;;;;;;;;;;;;5.32;100.00;100780.84;4897067;29;19919;-80
2024/01/25 16:33:00;;;;;;;;;;;;;;;5.36;100.00;100785.19;4896025;29;19931;-80
2024/01/25 16:35:25;;;;;;;;;;;;;;;5.34;100.00;100789.59;4896301;29;19959;-78
2024/01/25 16:37:50;;;;;;;;;;;;;;;5.32;100.00;100788.72;4880264;29;20295;-80
2024/01/25 16:40:15;;;;;;;;;;;;;;;5.39;100.00;100777.28;4894475;29;19923;-80
2024/01/25 16:42:41;;;;;;;;;;;;;;;5.33;100.00;100783.47;4896130;29;19934;-81
2024/01/25 16:45:07;;;;;;;;;;;;;;;5.36;100.00;100786.09;4876672;29;19970;-82
2024/01/25 16:47:32;;;;;;;;;;;;;;;5.35;100.00;100791.34;4894581;29;19927;-82
2024/01/25 16:49:57;;;;;;;;;;;;;;;5.31;100.00;100786.97;4896885;29;20418;-81
2024/01/25 16:52:23;;;;;;;;;;;;;;;5.33;100.00;100788.72;4895837;29;19941;-81
2024/01/25 16:54:48;;;;;;;;;;;;;;;5.34;100.00;100785.19;4894563;29;19923;-82
2024/01/25 16:57:13;;;;;;;;;;;;;;;5.32;100.00;100786.09;4896094;29;19975;-80
2024/01/25 16:59:38;;;;;;;;;;;;;;;5.32;100.00;100781.72;4896894;29;19919;-79
2024/01/25 17:02:04;;;;;;;;;;;;;;;5.30;100.00;100778.22;4896787;29;19923;-80
2024/01/25 17:04:29;;;;;;;;;;;;;;;5.35;100.00;100775.56;4896551;29;19924;-85
2024/01/25 17:06:55;;;;;;;;;;;;;;;5.34;100.00;100774.69;4896853;29;20278;-81
2024/01/25 17:09:21;;;;;;;;;;;;;;;5.31;100.00;100773.84;4895557;29;19919;-81
2024/01/25 17:11:47;;;;;;;;;;;;;;;5.38;100.00;100772.94;4896538;29;19951;-80
2024/01/25 17:14:12;;;;;;;;;;;;;;;5.35;100.00;100775.56;4896155;29;19926;-81
2024/01/25 17:16:37;;;;;;;;;;;;;;;5.31;100.00;100774.69;4896478;29;19919;-80
2024/01/25 17:19:03;;;;;;;;;;;;;;;5.36;100.00;100772.94;4896728;29;19919;-80
2024/01/25 17:21:30;;;;;;;;;;;;;;;5.34;100.00;100774.69;4895926;29;19931;-79
2024/01/25 17:23:57;;;;;;;;;;;;;;;5.33;100.00;100761.53;4895764;29;19927;-80
2024/01/25 17:26:23;;;;;;;;;;;;;;;5.37;100.00;100763.28;4893779;29;19931;-80
2024/01/25 17:28:48;;;;;;;;;;;;;;;5.35;100.00;100767.69;4896191;29;19924;-80
2024/01/25 17:31:14;;;;;;;;;;;;;;;5.36;100.00;100764.16;4897799;29;19947;-80
2024/01/25 17:33:40;;;;;;;;;;;;;;;5.33;100.00;100769.44;4899528;29;19930;-80
2024/01/25 17:36:06;;;;;;;;;;;;;;;5.39;100.00;100774.66;4899272;29;19962;-79
2024/01/25 17:38:33;;;;;;;;;;;;;;;5.37;100.00;100771.16;4883161;29;20295;-80
2024/01/25 17:40:58;;;;;;;;;;;;;;;5.37;100.00;100763.28;4898789;29;19927;-80
2024/01/25 17:43:23;;;;;;;;;;;;;;;5.34;100.00;100763.31;4898083;29;19923;-81
2024/01/25 17:45:48;;;;;;;;;;;;;;;5.32;100.00;100759.81;4898984;29;19943;-81
2024/01/25 17:48:14;;;;;;;;;;;;;;;5.33;100.00;100759.81;4882234;29;19966;-80
2024/01/25 17:50:39;;;;;;;;;;;;;;;5.35;100.00;100752.78;4898377;29;20018;-79
2024/01/25 17:53:04;;;;;;;;;;;;;;;5.36;100.00;100751.91;4882706;29;20335;-80
2024/01/25 17:55:30;;;;;;;;;;;;;;;5.32;100.00;100760.69;4897680;29;19928;-80
2024/01/25 17:57:55;;;;;;;;;;;;;;;5.32;100.00;100752.81;4899262;29;19923;-81
2024/01/25 18:00:20;;;;;;;;;;;;;;;5.35;100.00;100754.56;4898676;29;19923;-81
2024/01/25 18:02:45;;;;;;;;;;;;;;;5.33;100.00;100756.28;4898312;29;19929;-80
2024/01/25 18:05:11;;;;;;;;;;;;;;;5.36;100.00;100751.03;4899061;29;20316;-80
2024/01/25 18:07:36;;;;;;;;;;;;;;;5.36;100.00;100745.75;4899310;29;19928;-84
2024/01/25 18:10:01;;;;;;;;;;;;;;;5.35;100.00;100752.78;4897735;29;19924;-80
2024/01/25 18:12:27;;;;;;;;;;;;;;;5.34;100.00;100747.53;4898977;29;19945;-81
2024/01/25 18:14:54;;;;;;;;;;;;;;;5.32;100.00;100750.16;4881937;29;19924;-82
2024/01/25 18:17:19;;;;;;;;;;;;;;;5.36;100.00;100761.53;4898928;29;19958;-80
2024/01/25 18:19:44;;;;;;;;;;;;;;;5.40;100.00;100758.00;4898541;29;19967;-79
2024/01/25 18:22:10;;;;;;;;;;;;;;;5.38;100.00;100754.53;4899089;29;20256;-81
2024/01/25 18:24:35;;;;;;;;;;;;;;;5.37;100.00;100745.75;4896569;29;19975;-80
2024/01/25 18:27:00;;;;;;;;;;;;;;;5.36;100.00;100741.41;4898444;29;20026;-81
2024/01/25 18:29:27;;;;;;;;;;;;;;;5.38;100.00;100749.28;4898752;29;19935;-82
2024/01/25 18:31:52;;;;;;;;;;;;;;;5.34;100.00;100737.03;4898824;29;19928;-83
2024/01/25 18:34:18;;;;;;;;;;;;;;;5.33;100.00;100745.78;4881629;29;19955;-82
2024/01/25 18:36:43;;;;;;;;;;;;;;;5.39;100.00;100745.75;4898691;29;19927;-82
2024/01/25 18:39:09;;;;;;;;;;;;;;;5.35;100.00;100738.78;4897731;29;19923;-79
2024/01/25 18:41:34;;;;;;;;;;;;;;;5.34;100.00;100737.88;4898009;29;20375;-85
2024/01/25 18:43:59;;;;;;;;;;;;;;;5.38;100.00;100744.03;4897390;29;19934;-81
2024/01/25 18:46:25;;;;;;;;;;;;;;;5.36;100.00;100743.13;4897807;29;19923;-80
2024/01/25 18:48:50;;;;;;;;;;;;;;;5.36;100.00;100738.78;4898600;29;19923;-81
2024/01/25 18:51:15;;;;;;;;;;;;;;;5.40;100.00;100737.00;4896634;29;19923;-81
2024/01/25 18:53:40;;;;;;;;;;;;;;;5.39;100.00;100727.34;4897963;29;19935;-82
2024/01/25 18:56:06;;;;;;;;;;;;;;;5.36;100.00;100737.88;4895874;29;19919;-80
2024/01/25 18:58:31;;;;;;;;;;;;;;;5.39;100.00;100737.84;4898146;29;19941;-79
2024/01/25 19:00:57;;;;;;;;;;;;;;;5.36;100.00;100732.63;4898371;29;20283;-82
2024/01/25 19:03:22;;;;;;;;;;;;;;;5.42;100.00;100740.47;4897939;29;19955;-79
2024/01/25 19:05:48;;;;;;;;;;;;;;;5.40;100.00;100737.00;4897271;29;20294;-80
2024/01/25 19:08:20;;;;;;;;;;;;;;;5.40;100.00;100721.22;4897512;29;19923;-82
2024/01/25 19:10:45;;;;;;;;;;;;;;;5.39;100.00;100717.72;4896157;29;20272;-80
2024/01/25 19:13:11;;;;;;;;;;;;;;;5.37;100.00;100710.72;4879781;29;19931;-81
2024/01/25 19:15:36;;;;;;;;;;;;;;;5.36;100.00;100716.84;4897621;29;19923;-81
2024/01/25 19:18:01;;;;;;;;;;;;;;;5.37;100.00;100726.50;4897535;29;20328;-83
2024/01/25 19:20:26;;;;;;;;;;;;;;;5.35;100.00;100728.25;4897733;29;19971;-79
2024/01/25 19:22:52;;;;;;;;;;;;;;;5.37;100.00;100722.09;4897768;29;19926;-81
2024/01/25 19:25:17;;;;;;;;;;;;;;;5.38;100.00;100725.63;4896483;29;20037;-82
2024/01/25 19:27:43;;;;;;;;;;;;;;;5.40;100.00;100723.84;4896952;29;19985;-79
2024/01/25 19:30:08;;;;;;;;;;;;;;;5.40;100.00;100713.34;4897623;29;19975;-81
2024/01/25 19:32:34;;;;;;;;;;;;;;;5.40;100.00;100723.84;4897593;29;19927;-80
2024/01/25 19:34:59;;;;;;;;;;;;;;;5.37;100.00;100737.00;4897610;29;19920;-81
2024/01/25 19:37:25;;;;;;;;;;;;;;;5.42;100.00;100724.69;4897654;29;19922;-81
2024/01/25 19:39:50;;;;;;;;;;;;;;;5.34;100.00;100730.00;4895052;29;19925;-80
2024/01/25 19:42:15;;;;;;;;;;;;;;;5.38;100.00;100738.75;4897510;29;19919;-81
2024/01/25 19:44:40;;;;;;;;;;;;;;;5.38;100.00;100737.00;4897535;29;19978;-78
2024/01/25 19:47:06;;;;;;;;;;;;;;;5.37;100.00;100731.75;4897517;29;19963;-82
2024/01/25 19:49:31;;;;;;;;;;;;;;;5.36;100.00;100737.88;4897217;29;20010;-83
2024/01/25 19:51:56;;;;;;;;;;;;;;;5.34;100.00;100737.03;4897465;29;19920;-81
2024/01/25 19:54:22;;;;;;;;;;;;;;;5.36;100.00;100730.88;4894657;29;20291;-79
2024/01/25 19:56:47;;;;;;;;;;;;;;;5.36;100.00;100732.63;4880323;29;19987;-78
2024/01/25 19:59:12;;;;;;;;;;;;;;;5.42;100.00;100729.94;4897167;29;20010;-79
2024/01/25 20:01:38;;;;;;;;;;;;;;;5.38;100.00;100726.47;4897076;29;19923;-80
2024/01/25 20:04:03;;;;;;;;;;;;;;;5.36;100.00;100730.00;4897198;29;20391;-84
2024/01/25 20:06:30;;;;;;;;;;;;;;;5.38;100.00;100734.38;4880397;29;19923;-80
2024/01/25 20:08:55;;;;;;;;;;;;;;;5.44;100.00;100722.91;4896270;29;19916;-78
2024/01/25 20:11:21;;;;;;;;;;;;;;;5.42;100.00;100732.59;4895450;29;19924;-79
2024/01/25 20:13:47;;;;;;;;;;;;;;;5.37;100.00;100726.50;4897089;29;19923;-79
2024/01/25 20:16:12;;;;;;;;;;;;;;;5.37;100.00;100737.00;4896633;29;19975;-80
2024/01/25 20:18:37;;;;;;;;;;;;;;;5.34;100.00;100737.03;4897052;29;19927;-82
2024/01/25 20:21:03;;;;;;;;;;;;;;;5.36;100.00;100744.03;4895896;29;19979;-84
2024/01/25 20:23:29;;;;;;;;;;;;;;;5.39;100.00;100753.63;4895630;29;20022;-80
2024/01/25 20:25:55;;;;;;;;;;;;;;;5.38;100.00;100755.41;4895448;29;19919;-80
2024/01/25 20:28:21;;;;;;;;;;;;;;;5.33;100.00;100757.19;4896499;29;19924;-80
2024/01/25 20:30:46;;;;;;;;;;;;;;;5.38;100.00;100749.28;4879368;29;20001;-80
2024/01/25 20:33:12;;;;;;;;;;;;;;;5.38;100.00;100738.75;4895652;29;19924;-81
2024/01/25 20:35:37;;;;;;;;;;;;;;;5.38;100.00;100734.38;4887580;29;20018;-81
2024/01/25 20:38:02;;;;;;;;;;;;;;;5.38;100.00;100742.25;4879875;29;19955;-79
2024/01/25 20:40:28;;;;;;;;;;;;;;;5.37;100.00;100727.34;4895199;29;19934;-80
2024/01/25 20:42:53;;;;;;;;;;;;;;;5.35;100.00;100720.38;4896567;29;19920;-82
2024/01/25 20:45:21;;;;;;;;;;;;;;;5.34;100.00;100713.38;4895965;29;19928;-81
2024/01/25 20:47:46;;;;;;;;;;;;;;;5.37;100.00;100708.94;4896679;29;20272;-80
2024/01/25 20:50:12;;;;;;;;;;;;;;;5.40;100.00;100705.44;4896110;29;19923;-80
2024/01/25 20:52:37;;;;;;;;;;;;;;;5.38;100.00;100708.09;4896658;29;19924;-81
2024/01/25 20:55:04;;;;;;;;;;;;;;;5.36;100.00;100708.97;4895418;29;20541;-80
2024/01/25 20:57:29;;;;;;;;;;;;;;;5.40;100.00;100714.19;4886672;29;19942;-81
2024/01/25 20:59:55;;;;;;;;;;;;;;;5.42;100.00;100708.94;4896202;29;20363;-79
2024/01/25 21:02:20;;;;;;;;;;;;;;;5.35;100.00;100708.09;4895855;29;19970;-80
2024/01/25 21:04:45;;;;;;;;;;;;;;;5.33;100.00;100704.63;4896439;29;20389;-83
2024/01/25 21:07:11;;;;;;;;;;;;;;;5.40;100.00;100710.69;4890341;29;19923;-80
2024/01/25 21:09:36;;;;;;;;;;;;;;;5.36;100.00;100715.13;4898150;29;19931;-80
2024/01/25 21:12:02;;;;;;;;;;;;;;;5.34;100.00;100711.59;4899765;29;20831;-81
2024/01/25 21:14:27;;;;;;;;;;;;;;;5.34;100.00;100716.84;4899518;29;19928;-80
2024/01/25 21:16:52;;;;;;;;;;;;;;;5.35;100.00;100723.00;4900301;29;19924;-80
2024/01/25 21:19:18;;;;;;;;;;;;;;;5.32;100.00;100729.16;4899831;29;20286;-80
2024/01/25 21:21:44;;;;;;;;;;;;;;;5.32;100.00;100723.03;4898817;29;19930;-79
2024/01/25 21:24:09;;;;;;;;;;;;;;;5.31;100.00;100721.28;4897991;29;19923;-79
2024/01/25 21:26:34;;;;;;;;;;;;;;;5.35;100.00;100712.50;4899789;29;20327;-81
2024/01/25 21:29:00;;;;;;;;;;;;;;;5.35;100.00;100707.25;4899690;29;19970;-79
2024/01/25 21:31:25;;;;;;;;;;;;;;;5.34;100.00;100710.75;4899364;29;19935;-81
2024/01/25 21:33:50;;;;;;;;;;;;;;;5.35;100.00;100701.97;4882967;29;19928;-80
2024/01/25 21:36:15;;;;;;;;;;;;;;;5.36;100.00;100708.97;4899995;29;20014;-81
2024/01/25 21:38:41;;;;;;;;;;;;;;;5.30;100.00;100704.63;4882803;29;20014;-79
2024/01/25 21:41:07;;;;;;;;;;;;;;;5.36;100.00;100708.97;4897771;29;20391;-81